Time;durP1;ratioP1;P1;durP2;ratioP2;P2;SDS_P1;SDS_P2;PMS_P1;PMS_P2;Temp;Humidity;BMP_temperature;BMP_pressure;BME280_temperature;BME280_humidity;BME280_pressure;Samples;Min_cycle;Max_cycle;Signal;HPM_P1;HPM_P2
2023/02/03 00:00:06;;;;;;;17.90;14.20;;;;;;;1.37;95.91;99196.88;106286;1254;61296;-78
2023/02/03 00:02:41;;;;;;;20.70;15.10;;;;;;;1.31;95.86;99201.14;106495;1254;72874;-77
2023/02/03 00:05:09;;;;;;;20.10;15.10;;;;;;;1.24;96.21;99204.17;105892;1254;71061;-75
2023/02/03 00:07:38;;;;;;;24.30;16.00;;;;;;;1.25;95.91;99204.29;105851;1254;73774;-74
2023/02/03 00:10:06;;;;;;;19.10;15.10;;;;;;;1.27;96.04;99203.04;105838;1254;60561;-74
2023/02/03 00:12:35;;;;;;;17.90;14.80;;;;;;;1.23;96.25;99198.66;106635;1253;59653;-80
2023/02/03 00:15:04;;;;;;;19.10;14.60;;;;;;;1.17;96.53;99202.98;107174;1259;73730;-79
2023/02/03 00:17:33;;;;;;;20.20;14.50;;;;;;;1.15;96.47;99203.65;107836;1254;69752;-77
2023/02/03 00:20:01;;;;;;;21.00;14.70;;;;;;;1.23;96.23;99207.05;106498;1254;73779;-79
2023/02/03 00:22:29;;;;;;;26.50;16.50;;;;;;;1.25;96.02;99207.63;106200;1254;60865;-76
2023/02/03 00:24:59;;;;;;;21.60;16.60;;;;;;;1.16;96.20;99210.89;106124;1254;59882;-76
2023/02/03 00:27:27;;;;;;;17.70;14.90;;;;;;;1.11;96.29;99212.20;105842;1253;72346;-79
2023/02/03 00:29:55;;;;;;;18.80;14.80;;;;;;;1.15;96.20;99213.80;106223;1253;70242;-79
2023/02/03 00:32:24;;;;;;;23.90;15.30;;;;;;;1.12;96.20;99213.70;106155;1256;72438;-74
2023/02/03 00:34:53;;;;;;;20.00;15.70;;;;;;;1.01;96.64;99218.02;106279;1253;60432;-76
2023/02/03 00:37:22;;;;;;;19.70;16.00;;;;;;;1.02;96.62;99218.80;106412;1253;59727;-75
2023/02/03 00:40:15;;;;;;;23.50;16.90;;;;;;;1.05;96.40;99220.63;106655;1260;74245;-76
2023/02/03 00:42:43;;;;;;;20.50;16.00;;;;;;;0.96;96.65;99220.48;106849;1257;68800;-79
2023/02/03 00:45:11;;;;;;;18.80;14.80;;;;;;;0.91;96.89;99220.49;109093;1252;73828;-78
2023/02/03 00:47:40;;;;;;;17.40;13.50;;;;;;;0.99;96.62;99225.67;109515;1253;58822;-78
2023/02/03 00:50:10;;;;;;;20.60;14.70;;;;;;;1.03;96.56;99227.95;109403;1253;59439;-77
2023/02/03 00:52:38;;;;;;;20.00;15.10;;;;;;;0.99;96.89;99227.97;109514;1253;73019;-77
2023/02/03 00:55:07;;;;;;;18.10;13.80;;;;;;;0.99;96.85;99226.39;109443;1253;68406;-78
2023/02/03 00:57:40;;;;;;;18.40;14.60;;;;;;;1.11;96.65;99223.72;109506;1252;72174;-76
2023/02/03 01:00:11;;;;;;;21.10;14.50;;;;;;;1.13;96.63;99224.89;109450;1252;58467;-78
2023/02/03 01:02:40;;;;;;;19.40;14.10;;;;;;;1.11;96.44;99221.77;109324;1253;58121;-77
2023/02/03 01:05:08;;;;;;;19.20;14.50;;;;;;;1.21;96.26;99225.73;109481;1254;72769;-77
2023/02/03 01:07:36;;;;;;;19.30;14.20;;;;;;;1.23;96.02;99227.64;109601;1253;69995;-77
2023/02/03 01:10:05;;;;;;;16.80;14.40;;;;;;;1.20;95.93;99228.03;109518;1253;72624;-77
2023/02/03 01:12:33;;;;;;;23.40;14.20;;;;;;;1.23;95.72;99227.98;109368;1253;60669;-76
2023/02/03 01:15:01;;;;;;;19.80;14.60;;;;;;;1.30;95.55;99227.27;108791;1254;60341;-78
2023/02/03 01:17:29;;;;;;;23.80;17.20;;;;;;;1.26;95.28;99228.48;108654;1253;71011;-77
2023/02/03 01:19:58;;;;;;;17.90;15.20;;;;;;;1.18;95.50;99227.12;108932;1253;67884;-77
2023/02/03 01:22:29;;;;;;;19.30;14.50;;;;;;;1.23;95.54;99224.70;109343;1252;72378;-76
2023/02/03 01:24:57;;;;;;;21.00;13.70;;;;;;;1.27;95.29;99225.73;109388;1254;58465;-73
2023/02/03 01:27:25;;;;;;;17.90;14.00;;;;;;;1.23;95.47;99222.23;108831;1253;59958;-73
2023/02/03 01:29:55;;;;;;;19.90;14.20;;;;;;;1.19;95.61;99219.93;109453;1252;71965;-74
2023/02/03 01:32:23;;;;;;;16.50;13.10;;;;;;;1.28;95.41;99218.37;109430;1253;70023;-75
2023/02/03 01:34:52;;;;;;;19.10;14.50;;;;;;;1.35;94.91;99221.10;109480;1253;72994;-75
2023/02/03 01:37:20;;;;;;;20.70;13.80;;;;;;;1.31;95.12;99221.05;109396;1253;59221;-75
2023/02/03 01:39:48;;;;;;;17.70;13.50;;;;;;;1.28;95.34;99221.63;109499;1252;60311;-73
2023/02/03 01:42:17;;;;;;;17.80;13.40;;;;;;;1.38;95.18;99217.92;109478;1253;73288;-73
2023/02/03 01:44:48;;;;;;;16.10;12.90;;;;;;;1.44;95.05;99221.77;108562;1253;69630;-73
2023/02/03 01:47:24;;;;;;;16.90;12.80;;;;;;;1.42;95.02;99224.27;105936;1256;71983;-73
2023/02/03 01:50:02;;;;;;;16.60;11.90;;;;;;;1.41;94.95;99223.80;106700;1256;60930;-71
2023/02/03 01:52:31;;;;;;;15.70;11.40;;;;;;;1.49;94.53;99222.94;105921;1254;61248;-73
2023/02/03 01:55:00;;;;;;;15.60;12.50;;;;;;;1.47;94.39;99219.77;105741;1254;73938;-74
2023/02/03 01:57:34;;;;;;;17.00;12.60;;;;;;;1.40;94.62;99217.54;105943;1254;71229;-73
2023/02/03 02:00:04;;;;;;;15.70;12.10;;;;;;;1.34;94.59;99216.08;105895;1255;71700;-74
2023/02/03 02:02:41;;;;;;;17.10;12.00;;;;;;;1.42;94.40;99223.20;105794;1254;62395;-73
2023/02/03 02:05:43;;;;;;;16.20;12.10;;;;;;;1.45;94.32;99218.73;105815;1259;59624;-73
2023/02/03 02:08:12;;;;;;;18.30;12.40;;;;;;;1.34;94.10;99211.75;105994;1253;73984;-74
2023/02/03 02:10:41;;;;;;;16.40;12.50;;;;;;;1.27;94.36;99213.18;106003;1256;70199;-73
2023/02/03 02:13:09;;;;;;;16.90;12.80;;;;;;;1.32;94.32;99215.09;105947;1259;73979;-71
2023/02/03 02:15:44;;;;;;;14.90;12.70;;;;;;;1.30;94.37;99222.53;105995;1258;59689;-72
2023/02/03 02:18:21;;;;;;;18.80;13.90;;;;;;;1.20;94.50;99220.00;105959;1256;59647;-73
2023/02/03 02:21:04;;;;;;;18.50;13.20;;;;;;;1.19;94.53;99219.93;105807;1259;72212;-72
2023/02/03 02:23:40;;;;;;;19.10;14.20;;;;;;;1.21;94.44;99217.36;105727;1254;71566;-76
2023/02/03 02:26:42;;;;;;;20.20;14.30;;;;;;;1.09;94.91;99224.17;105768;1257;72021;-75
2023/02/03 02:29:37;;;;;;;15.30;12.50;;;;;;;1.04;95.22;99222.33;105800;1253;60868;-75
2023/02/03 02:32:12;;;;;;;19.50;13.80;;;;;;;1.09;95.15;99222.94;105757;1254;61312;-72
2023/02/03 02:34:49;;;;;;;20.60;14.30;;;;;;;1.02;95.39;99224.38;105785;1256;72455;-73
2023/02/03 02:37:30;;;;;;;23.80;14.90;;;;;;;0.95;95.70;99228.27;105779;1254;70949;-71
2023/02/03 02:40:09;;;;;;;22.00;15.00;;;;;;;1.01;95.78;99234.08;105694;1254;72781;-71
2023/02/03 02:43:12;;;;;;;20.70;15.50;;;;;;;1.03;95.58;99234.09;105743;1260;60543;-72
2023/02/03 02:45:48;;;;;;;16.50;13.40;;;;;;;0.92;96.04;99229.67;105908;1254;61219;-73
2023/02/03 02:48:30;;;;;;;19.30;13.50;;;;;;;0.89;96.08;99222.47;105748;1254;73075;-72
2023/02/03 02:50:59;;;;;;;16.10;12.50;;;;;;;0.96;95.96;99218.77;105716;1254;71556;-72
2023/02/03 02:53:29;;;;;;;20.40;14.00;;;;;;;0.96;96.00;99222.38;106028;1254;73090;-74
2023/02/03 02:55:59;;;;;;;20.90;14.00;;;;;;;0.91;96.34;99224.02;105782;1254;60421;-73
2023/02/03 02:58:27;;;;;;;20.40;14.20;;;;;;;0.87;96.40;99226.04;105889;1258;60527;-73
2023/02/03 03:00:55;;;;;;;16.00;13.00;;;;;;;0.93;96.21;99226.52;106055;1253;72100;-74
2023/02/03 03:03:24;;;;;;;16.80;13.20;;;;;;;0.97;95.88;99223.55;105956;1254;71395;-73
2023/02/03 03:05:55;;;;;;;17.50;13.50;;;;;;;0.91;96.12;99222.60;105640;1254;72381;-73
2023/02/03 03:08:32;;;;;;;18.10;13.10;;;;;;;0.84;96.22;99220.55;105999;1253;60508;-75
2023/02/03 03:11:00;;;;;;;16.20;13.00;;;;;;;0.90;96.08;99216.45;105800;1254;60345;-71
2023/02/03 03:13:32;;;;;;;17.30;13.40;;;;;;;0.91;96.27;99215.15;105920;1256;74516;-73
2023/02/03 03:16:01;;;;;;;16.50;12.90;;;;;;;0.84;96.43;99216.20;105921;1254;70966;-74
2023/02/03 03:18:32;;;;;;;15.90;12.20;;;;;;;0.88;96.46;99219.73;105881;1256;73866;-75
2023/02/03 03:21:05;;;;;;;16.20;13.00;;;;;;;0.93;96.46;99218.98;105942;1254;61222;-74
2023/02/03 03:23:38;;;;;;;20.10;14.10;;;;;;;0.91;96.75;99217.91;106106;1253;60456;-73
2023/02/03 03:26:21;;;;;;;17.00;13.30;;;;;;;0.87;96.54;99216.11;107556;1254;75069;-73
2023/02/03 03:28:51;;;;;;;16.60;13.00;;;;;;;0.93;96.33;99214.27;107461;1254;70205;-73
2023/02/03 03:31:19;;;;;;;20.70;13.80;;;;;;;0.96;96.31;99218.88;106351;1259;73759;-73
2023/02/03 03:33:48;;;;;;;17.60;13.50;;;;;;;0.92;96.51;99220.64;105700;1254;60518;-75
2023/02/03 03:36:41;;;;;;;16.60;13.20;;;;;;;0.88;96.64;99219.00;105864;1256;60479;-73
2023/02/03 03:39:28;;;;;;;19.40;13.40;;;;;;;0.99;96.43;99216.98;105852;1253;72747;-75
2023/02/03 03:42:20;;;;;;;16.30;13.10;;;;;;;1.00;96.14;99217.09;105818;1256;71265;-75
2023/02/03 03:44:56;;;;;;;20.20;13.40;;;;;;;0.90;96.42;99219.05;105806;1259;72997;-74
2023/02/03 03:47:32;;;;;;;21.70;13.80;;;;;;;0.87;96.49;99213.38;105858;1257;60986;-74
2023/02/03 03:50:00;;;;;;;18.00;13.30;;;;;;;0.91;96.29;99216.84;105886;1256;60477;-73
2023/02/03 03:52:31;;;;;;;23.90;14.60;;;;;;;0.93;96.13;99217.27;105807;1261;73009;-72
2023/02/03 03:54:59;;;;;;;23.40;14.40;;;;;;;0.85;96.45;99218.20;106038;1254;71540;-73
2023/02/03 03:57:54;;;;;;;15.30;12.50;;;;;;;0.83;96.58;99220.48;106121;1253;73652;-72
2023/02/03 04:00:22;;;;;;;21.10;14.40;;;;;;;0.88;96.54;99225.81;105741;1254;60604;-74
2023/02/03 04:02:53;;;;;;;19.60;14.70;;;;;;;0.82;96.65;99225.41;105979;1256;61168;-72
2023/02/03 04:05:22;;;;;;;22.00;14.30;;;;;;;0.77;96.95;99226.80;105821;1255;74539;-75
2023/02/03 04:07:50;;;;;;;16.50;13.30;;;;;;;0.84;96.80;99229.98;105980;1256;70569;-78
2023/02/03 04:10:26;;;;;;;17.80;14.20;;;;;;;0.87;96.53;99234.80;106057;1254;72867;-77
2023/02/03 04:12:55;;;;;;;20.00;14.80;;;;;;;0.79;96.60;99232.98;106177;1254;60332;-76
2023/02/03 04:15:23;;;;;;;19.60;13.70;;;;;;;0.72;96.95;99228.45;106737;1259;60357;-78
2023/02/03 04:17:53;;;;;;;19.70;13.90;;;;;;;0.79;96.89;99227.58;106169;1254;73957;-72
2023/02/03 04:20:25;;;;;;;19.40;14.40;;;;;;;0.81;96.70;99225.52;105882;1256;71235;-72
2023/02/03 04:22:54;;;;;;;22.40;14.70;;;;;;;0.72;96.82;99219.55;105569;1254;74013;-72
2023/02/03 04:25:22;;;;;;;20.30;13.60;;;;;;;0.72;96.79;99222.71;106020;1254;61184;-72
2023/02/03 04:27:51;;;;;;;20.00;14.40;;;;;;;0.73;96.74;99217.60;105718;1259;60444;-75
2023/02/03 04:30:19;;;;;;;20.10;15.60;;;;;;;0.66;97.13;99218.14;105949;1255;73103;-77
2023/02/03 04:32:47;;;;;;;22.60;16.10;;;;;;;0.60;97.30;99220.96;105971;1254;70176;-81
2023/02/03 04:35:15;;;;;;;20.90;15.00;;;;;;;0.63;97.01;99226.16;105796;1259;72119;-78
2023/02/03 04:37:44;;;;;;;21.20;15.30;;;;;;;0.67;97.02;99225.89;105821;1260;60428;-73
2023/02/03 04:40:12;;;;;;;21.00;16.70;;;;;;;0.63;97.20;99224.23;105945;1254;60969;-77
2023/02/03 04:42:41;;;;;;;21.50;16.10;;;;;;;0.57;97.31;99222.81;106133;1257;74831;-82
2023/02/03 04:45:10;;;;;;;22.70;16.10;;;;;;;0.59;97.32;99228.52;106070;1253;70634;-71
2023/02/03 04:47:42;;;;;;;22.10;15.70;;;;;;;0.65;97.37;99237.36;105927;1253;73725;-77
2023/02/03 04:50:10;;;;;;;23.10;15.30;;;;;;;0.63;97.73;99242.38;106118;1254;60514;-73
2023/02/03 04:52:39;;;;;;;23.70;17.50;;;;;;;0.59;97.73;99245.81;105839;1253;60536;-76
2023/02/03 04:55:08;;;;;;;25.50;16.40;;;;;;;0.64;97.51;99243.02;106093;1256;73609;-76
2023/02/03 04:57:36;;;;;;;28.20;19.60;;;;;;;0.68;97.43;99239.36;105965;1256;71546;-77
2023/02/03 05:00:05;;;;;;;27.60;18.80;;;;;;;0.64;97.59;99242.20;105868;1254;72570;-76
2023/02/03 05:02:34;;;;;;;26.50;17.70;;;;;;;0.58;97.84;99247.31;105928;1254;62144;-73
2023/02/03 05:05:02;;;;;;;26.70;17.10;;;;;;;0.63;97.79;99254.92;106015;1254;61027;-80
2023/02/03 05:07:30;;;;;;;24.20;18.10;;;;;;;0.69;97.81;99254.69;105675;1259;72985;-78
2023/02/03 05:09:59;;;;;;;26.60;17.30;;;;;;;0.67;98.09;99252.06;106025;1257;71771;-77
2023/02/03 05:12:27;;;;;;;23.70;16.90;;;;;;;0.64;97.99;99257.30;105973;1256;72466;-76
2023/02/03 05:14:57;;;;;;;23.70;17.40;;;;;;;0.69;97.84;99253.41;105784;1254;62044;-77
2023/02/03 05:17:29;;;;;;;22.60;17.30;;;;;;;0.69;97.72;99255.17;105622;1260;61520;-75
2023/02/03 05:19:57;;;;;;;25.30;18.10;;;;;;;0.63;97.87;99262.77;105776;1258;74345;-75
2023/02/03 05:22:25;;;;;;;24.80;17.50;;;;;;;0.63;98.29;99264.91;105818;1257;71198;-76
2023/02/03 05:24:53;;;;;;;22.80;16.70;;;;;;;0.73;97.80;99270.23;105870;1254;72195;-77
2023/02/03 05:27:21;;;;;;;27.70;19.00;;;;;;;0.75;97.88;99272.13;105801;1254;60471;-77
2023/02/03 05:29:49;;;;;;;23.80;18.30;;;;;;;0.71;97.94;99278.42;106395;1255;60527;-78
2023/02/03 05:32:18;;;;;;;30.40;19.60;;;;;;;0.67;97.95;99282.55;106375;1259;74021;-80
2023/02/03 05:34:47;;;;;;;26.00;17.70;;;;;;;0.74;97.93;99282.16;106328;1254;70945;-78
2023/02/03 05:37:14;;;;;;;34.70;20.70;;;;;;;0.83;97.74;99279.55;106642;1254;71890;-74
2023/02/03 05:39:43;;;;;;;33.50;22.90;;;;;;;0.82;97.89;99285.08;106249;1254;60947;-77
2023/02/03 05:42:12;;;;;;;28.90;18.20;;;;;;;0.77;98.16;99286.61;106038;1256;61184;-73
2023/02/03 05:44:40;;;;;;;28.60;17.70;;;;;;;0.83;97.99;99291.21;105918;1254;73294;-74
2023/02/03 05:47:08;;;;;;;25.60;18.50;;;;;;;0.89;97.69;99288.85;106585;1254;71564;-77
2023/02/03 05:49:39;;;;;;;25.30;18.20;;;;;;;0.86;97.91;99291.90;107850;1254;70766;-77
2023/02/03 05:52:12;;;;;;;37.00;18.60;;;;;;;0.83;98.02;99295.58;107943;1254;62068;-78
2023/02/03 05:54:42;;;;;;;25.70;16.80;;;;;;;0.92;97.94;99295.77;106478;1259;60824;-77
2023/02/03 05:57:12;;;;;;;25.40;17.00;;;;;;;1.01;97.60;99296.35;106049;1257;74725;-78
2023/02/03 05:59:40;;;;;;;26.10;17.50;;;;;;;0.98;97.84;99294.29;108179;1253;71278;-77
2023/02/03 06:02:08;;;;;;;25.60;16.50;;;;;;;0.94;97.76;99293.49;109355;1253;70208;-77
2023/02/03 06:04:37;;;;;;;25.70;16.40;;;;;;;1.05;97.71;99298.14;109284;1253;60730;-74
2023/02/03 06:07:05;;;;;;;28.00;18.70;;;;;;;1.12;97.21;99298.47;108489;1254;60345;-72
2023/02/03 06:09:33;;;;;;;26.80;16.20;;;;;;;1.08;97.44;99301.03;109264;1253;71861;-75
2023/02/03 06:12:01;;;;;;;25.80;16.50;;;;;;;1.05;97.63;99299.18;109262;1254;69880;-74
2023/02/03 06:14:30;;;;;;;27.90;16.80;;;;;;;1.15;97.46;99302.40;109383;1254;71040;-77
2023/02/03 06:16:58;;;;;;;24.90;16.60;;;;;;;1.20;97.44;99305.67;109432;1253;60308;-76
2023/02/03 06:19:30;;;;;;;28.50;17.90;;;;;;;1.20;97.75;99305.67;109512;1252;60479;-76
2023/02/03 06:21:58;;;;;;;22.80;16.60;;;;;;;1.21;97.89;99309.83;109515;1254;73355;-77
2023/02/03 06:24:26;;;;;;;25.50;16.60;;;;;;;1.30;97.39;99316.55;109495;1254;70168;-77
2023/02/03 06:26:54;;;;;;;27.00;15.70;;;;;;;1.39;96.91;99315.52;109474;1254;72627;-79
2023/02/03 06:29:22;;;;;;;24.20;15.90;;;;;;;1.38;96.83;99320.48;109566;1254;60433;-77
2023/02/03 06:31:50;;;;;;;21.90;15.00;;;;;;;1.35;96.98;99323.02;109258;1254;59263;-78
2023/02/03 06:34:19;;;;;;;23.40;16.30;;;;;;;1.42;96.58;99323.69;109379;1254;73885;-77
2023/02/03 06:36:47;;;;;;;21.70;15.50;;;;;;;1.49;96.31;99323.66;109287;1254;68724;-77
2023/02/03 06:39:16;;;;;;;20.50;14.70;;;;;;;1.51;96.61;99330.83;109482;1253;70670;-78
2023/02/03 06:41:44;;;;;;;18.90;14.10;;;;;;;1.53;96.77;99334.18;109325;1253;58268;-78
2023/02/03 06:44:12;;;;;;;15.70;11.40;;;;;;;1.55;96.35;99340.48;109384;1254;59575;-79
2023/02/03 06:46:40;;;;;;;14.10;10.50;;;;;;;1.62;95.10;99345.14;109373;1254;71843;-78
2023/02/03 06:49:08;;;;;;;16.50;11.10;;;;;;;1.68;94.41;99351.28;109493;1254;67920;-78
2023/02/03 06:51:36;;;;;;;14.90;11.10;;;;;;;1.64;94.22;99346.38;109289;1254;71432;-79
2023/02/03 06:54:04;;;;;;;17.20;11.40;;;;;;;1.61;94.42;99348.42;109484;1254;58622;-80
2023/02/03 06:56:33;;;;;;;15.30;10.70;;;;;;;1.59;94.21;99352.40;109223;1253;59116;-77
2023/02/03 06:59:01;;;;;;;18.90;13.70;;;;;;;1.62;93.60;99351.60;109408;1254;73785;-76
2023/02/03 07:01:30;;;;;;;16.10;12.20;;;;;;;1.71;93.01;99352.15;109439;1252;70258;-77
2023/02/03 07:03:58;;;;;;;14.30;10.40;;;;;;;1.72;93.09;99355.20;108661;1252;71617;-78
2023/02/03 07:06:29;;;;;;;17.50;11.90;;;;;;;1.68;92.84;99355.54;107280;1256;60542;-77
2023/02/03 07:08:57;;;;;;;15.60;11.10;;;;;;;1.62;92.37;99357.73;106728;1253;60427;-75
2023/02/03 07:11:31;;;;;;;15.40;10.60;;;;;;;1.65;92.11;99359.23;109113;1253;72864;-78
2023/02/03 07:14:01;;;;;;;15.80;10.70;;;;;;;1.67;91.93;99358.73;106965;1259;70881;-78
2023/02/03 07:16:31;;;;;;;15.70;12.20;;;;;;;1.64;92.13;99358.46;105692;1254;71724;-78
2023/02/03 07:18:59;;;;;;;21.00;14.80;;;;;;;1.57;92.22;99361.62;105888;1253;60385;-79
2023/02/03 07:21:28;;;;;;;11.00;8.80;;;;;;;1.49;92.16;99366.57;105949;1257;60415;-77
2023/02/03 07:23:56;;;;;;;13.50;10.30;;;;;;;1.50;91.70;99364.20;105892;1260;75066;-77
2023/02/03 07:26:25;;;;;;;11.30;8.30;;;;;;;1.52;91.68;99372.83;105887;1260;70789;-77
2023/02/03 07:28:53;;;;;;;9.60;7.10;;;;;;;1.49;91.62;99371.52;105729;1255;72660;-77
2023/02/03 07:31:21;;;;;;;6.90;5.00;;;;;;;1.42;91.38;99374.33;107569;1253;60540;-75
2023/02/03 07:33:50;;;;;;;14.90;10.50;;;;;;;1.32;91.22;99377.48;106659;1258;60534;-76
2023/02/03 07:36:18;;;;;;;11.60;8.90;;;;;;;1.36;90.77;99375.82;107265;1259;73690;-78
2023/02/03 07:38:46;;;;;;;11.10;9.00;;;;;;;1.31;90.56;99371.09;106692;1256;70232;-77
2023/02/03 07:41:14;;;;;;;12.40;8.80;;;;;;;1.21;90.65;99375.55;106359;1259;74278;-79
2023/02/03 07:43:45;;;;;;;9.10;6.70;;;;;;;1.12;91.02;99379.37;105993;1254;60632;-78
2023/02/03 07:46:13;;;;;;;17.50;13.30;;;;;;;1.06;91.31;99381.62;105847;1254;60304;-79
2023/02/03 07:48:43;;;;;;;21.10;16.80;;;;;;;1.14;91.78;99384.80;105905;1258;73587;-78
2023/02/03 07:51:11;;;;;;;14.30;10.60;;;;;;;1.25;91.87;99387.27;106296;1259;70434;-77
2023/02/03 07:53:39;;;;;;;7.60;6.00;;;;;;;1.27;92.01;99388.69;106224;1257;73412;-79
2023/02/03 07:56:10;;;;;;;6.50;5.40;;;;;;;1.22;92.09;99389.77;106935;1254;60467;-79
2023/02/03 07:58:39;;;;;;;5.50;4.00;;;;;;;1.18;92.18;99391.80;106402;1260;61389;-78
2023/02/03 08:01:15;;;;;;;6.60;4.70;;;;;;;1.27;92.01;99393.77;105961;1257;75191;-81
2023/02/03 08:03:43;;;;;;;5.90;4.30;;;;;;;1.28;91.38;99391.90;106239;1257;69653;-81
2023/02/03 08:06:11;;;;;;;6.80;5.10;;;;;;;1.20;91.42;99394.81;105783;1264;73082;-80
2023/02/03 08:08:43;;;;;;;8.50;5.40;;;;;;;1.09;90.99;99396.14;105924;1254;60463;-81
2023/02/03 08:11:12;;;;;;;6.40;5.20;;;;;;;1.05;90.86;99392.98;106235;1254;60961;-78
2023/02/03 08:13:40;;;;;;;8.40;6.20;;;;;;;1.09;90.82;99394.61;106617;1255;74143;-79
2023/02/03 08:16:09;;;;;;;7.10;4.90;;;;;;;1.04;90.95;99403.04;107073;1259;70240;-78
2023/02/03 08:18:37;;;;;;;7.80;5.40;;;;;;;0.97;91.30;99405.45;106251;1259;72768;-77
2023/02/03 08:21:05;;;;;;;6.80;5.20;;;;;;;0.94;91.60;99408.25;105847;1254;62492;-78
2023/02/03 08:23:34;;;;;;;6.30;4.90;;;;;;;1.04;91.47;99407.70;105919;1257;60853;-76
2023/02/03 08:26:02;;;;;;;10.50;7.60;;;;;;;1.13;91.22;99414.38;105866;1258;75047;-78
2023/02/03 08:28:31;;;;;;;9.50;6.80;;;;;;;1.09;91.51;99417.45;105873;1257;71239;-76
2023/02/03 08:30:59;;;;;;;6.40;5.30;;;;;;;1.08;91.68;99417.03;105809;1255;71920;-79
2023/02/03 08:33:28;;;;;;;5.00;4.40;;;;;;;1.08;91.75;99422.58;106159;1254;61887;-78
2023/02/03 08:35:57;;;;;;;7.20;4.70;;;;;;;1.17;91.22;99422.58;106348;1254;60405;-77
2023/02/03 08:38:25;;;;;;;8.40;5.60;;;;;;;1.20;90.51;99426.19;106449;1255;73554;-76
2023/02/03 08:40:53;;;;;;;6.90;5.90;;;;;;;1.15;91.05;99427.95;105839;1258;70110;-77
2023/02/03 08:43:23;;;;;;;9.00;7.50;;;;;;;1.08;90.78;99429.42;105917;1256;73852;-77
2023/02/03 08:45:51;;;;;;;7.80;6.40;;;;;;;0.98;90.77;99426.29;105930;1260;61213;-78
2023/02/03 08:48:21;;;;;;;8.90;6.10;;;;;;;1.01;90.80;99427.84;105864;1261;60601;-78
2023/02/03 08:50:51;;;;;;;10.20;7.80;;;;;;;1.02;90.77;99429.34;105804;1259;74604;-77
2023/02/03 08:53:19;;;;;;;9.20;6.90;;;;;;;0.93;91.01;99431.06;106056;1254;69387;-78
2023/02/03 08:55:49;;;;;;;6.50;5.20;;;;;;;0.89;91.65;99432.89;105923;1258;73657;-76
2023/02/03 08:58:17;;;;;;;7.30;5.60;;;;;;;0.88;91.75;99434.02;105960;1254;60854;-78
2023/02/03 09:00:48;;;;;;;13.70;11.50;;;;;;;0.98;91.54;99433.41;105815;1253;61199;-76
2023/02/03 09:03:17;;;;;;;7.70;6.40;;;;;;;1.06;91.71;99434.77;105655;1254;72885;-78
2023/02/03 09:05:45;;;;;;;8.10;6.20;;;;;;;1.02;91.59;99434.70;105859;1257;68392;-78
2023/02/03 09:08:15;;;;;;;7.40;5.60;;;;;;;0.95;91.62;99434.70;105748;1260;73848;-79
2023/02/03 09:10:43;;;;;;;8.80;6.30;;;;;;;0.92;91.87;99432.69;105750;1260;60844;-78
2023/02/03 09:13:11;;;;;;;8.90;5.30;;;;;;;1.04;91.87;99434.55;105931;1258;60335;-80
2023/02/03 09:15:39;;;;;;;6.60;5.30;;;;;;;1.14;91.39;99431.02;106018;1258;73797;-77
2023/02/03 09:18:08;;;;;;;7.80;6.70;;;;;;;1.10;91.40;99429.72;105958;1258;69337;-78
2023/02/03 09:20:36;;;;;;;8.80;6.50;;;;;;;1.03;91.60;99432.72;105948;1257;73844;-76
2023/02/03 09:23:04;;;;;;;8.10;4.90;;;;;;;0.98;91.80;99429.77;105970;1255;60536;-78
2023/02/03 09:25:33;;;;;;;6.00;5.00;;;;;;;1.07;91.84;99432.40;105990;1254;60424;-78
2023/02/03 09:28:02;;;;;;;6.60;4.80;;;;;;;1.18;91.78;99431.42;105952;1256;74062;-75
2023/02/03 09:30:30;;;;;;;6.10;5.00;;;;;;;1.21;91.71;99433.79;105955;1253;71793;-76
2023/02/03 09:32:59;;;;;;;7.00;5.70;;;;;;;1.22;92.11;99431.81;106559;1254;73670;-77
2023/02/03 09:35:28;;;;;;;7.60;5.70;;;;;;;1.25;91.95;99431.23;106731;1254;60991;-78
2023/02/03 09:37:58;;;;;;;6.50;5.60;;;;;;;1.38;91.83;99428.13;105813;1258;60881;-79
2023/02/03 09:40:29;;;;;;;7.00;5.10;;;;;;;1.51;91.20;99428.40;105719;1259;73155;-79
2023/02/03 09:43:08;;;;;;;7.30;6.20;;;;;;;1.52;91.09;99425.34;105928;1260;68458;-81
2023/02/03 09:45:36;;;;;;;9.30;6.40;;;;;;;1.48;90.70;99421.81;105922;1254;74033;-81
2023/02/03 09:48:17;;;;;;;7.30;6.50;;;;;;;1.45;90.68;99426.23;106078;1254;62228;-82
2023/02/03 09:50:45;;;;;;;7.00;5.90;;;;;;;1.59;90.78;99422.41;106188;1255;61007;-82
2023/02/03 09:53:36;;;;;;;7.80;6.10;;;;;;;1.64;89.41;99426.66;106209;1254;73739;-83
2023/02/03 09:56:04;;;;;;;7.00;5.70;;;;;;;1.54;89.32;99426.56;106615;1254;69562;-81
2023/02/03 09:58:33;;;;;;;8.40;7.10;;;;;;;1.51;89.79;99422.45;106114;1254;71732;-78
2023/02/03 10:01:04;;;;;;;7.80;6.10;;;;;;;1.55;90.32;99423.73;105980;1254;62140;-79
2023/02/03 10:03:42;;;;;;;8.50;6.70;;;;;;;1.70;89.95;99420.66;105980;1260;60804;-76
2023/02/03 10:06:26;;;;;;;8.30;5.90;;;;;;;1.83;89.35;99419.98;106039;1257;74047;-77
2023/02/03 10:08:56;;;;;;;9.00;6.40;;;;;;;1.80;88.57;99418.98;106004;1257;69121;-79
2023/02/03 10:11:32;;;;;;;8.40;6.00;;;;;;;1.71;88.48;99418.95;105959;1257;73182;-76
2023/02/03 10:14:20;;;;;;;7.10;5.60;;;;;;;1.68;88.02;99423.41;105756;1260;61212;-77
2023/02/03 10:17:04;;;;;;;5.20;4.60;;;;;;;1.72;87.31;99419.59;105644;1259;61642;-76
2023/02/03 10:20:04;;;;;;;5.80;4.70;;;;;;;1.69;86.77;99415.98;105906;1258;74834;-77
2023/02/03 10:22:44;;;;;;;7.00;5.30;;;;;;;1.55;86.59;99419.20;105951;1256;71204;-77
2023/02/03 10:25:13;;;;;;;6.90;5.50;;;;;;;1.47;87.07;99417.00;106056;1254;72694;-77
2023/02/03 10:27:42;;;;;;;7.00;5.70;;;;;;;1.46;87.10;99417.62;105976;1254;62165;-77
2023/02/03 10:30:21;;;;;;;8.80;6.60;;;;;;;1.59;87.29;99412.63;106016;1254;61225;-78
2023/02/03 10:33:08;;;;;;;7.50;5.30;;;;;;;1.69;87.44;99414.59;105921;1254;74806;-77
2023/02/03 10:35:50;;;;;;;10.00;5.70;;;;;;;1.71;87.21;99415.29;106063;1259;68833;-78
2023/02/03 10:38:34;;;;;;;7.50;5.50;;;;;;;1.69;86.68;99413.59;106053;1257;72524;-78
2023/02/03 10:41:03;;;;;;;6.30;5.00;;;;;;;1.77;86.80;99413.81;105520;1260;242430;-77
2023/02/03 10:46:07;;;;;;;6.60;5.10;;;;;;;1.84;87.21;99411.69;102458;1292;602223;-78
2023/02/03 10:48:34;;;;;;;6.70;5.90;;;;;;;1.83;86.71;99412.81;105058;1269;59362;-77
2023/02/03 10:51:01;;;;;;;7.80;5.50;;;;;;;1.82;86.37;99409.08;104822;1269;60446;-77
2023/02/03 10:53:35;;;;;;;5.80;4.70;;;;;;;1.88;85.74;99410.19;104833;1270;73482;-76
2023/02/03 10:56:03;;;;;;;;;;;;;;;1.88;85.14;99407.18;105354;1259;69502;-77
2023/02/03 10:58:32;;;;;;;7.60;5.50;;;;;;;1.77;85.13;99406.80;105322;1260;255851;-77
2023/02/03 11:01:12;;;;;;;7.00;5.60;;;;;;;1.66;85.33;99403.54;105651;1266;59679;-77
2023/02/03 11:03:43;;;;;;;10.20;6.70;;;;;;;1.65;86.53;99401.30;106360;1262;59164;-76
2023/02/03 11:06:15;;;;;;;7.80;5.50;;;;;;;1.74;87.04;99397.77;105774;1256;73390;-77
2023/02/03 11:08:44;;;;;;;9.50;6.00;;;;;;;1.92;85.98;99395.67;105973;1260;70761;-79
2023/02/03 11:11:24;;;;;;;7.60;6.10;;;;;;;2.04;85.54;99389.18;105850;1257;73266;-76
2023/02/03 11:13:54;;;;;;;7.60;6.10;;;;;;;2.02;84.97;99391.09;105930;1257;61510;-76
2023/02/03 11:16:23;;;;;;;8.30;6.30;;;;;;;1.94;84.75;99388.91;106121;1256;59704;-77
2023/02/03 11:18:58;;;;;;;7.80;6.10;;;;;;;1.88;84.83;99391.85;106828;1256;74234;-77
2023/02/03 11:21:29;;;;;;;8.20;6.40;;;;;;;1.92;84.51;99391.73;108819;1260;70214;-78
2023/02/03 11:24:27;;;;;;;10.50;8.40;;;;;;;2.42;85.04;99386.80;108888;1257;72995;-75
2023/02/03 11:26:59;;;;;;;7.30;6.00;;;;;;;3.59;85.69;99390.58;108969;1259;58153;-77
2023/02/03 11:29:33;;;;;;;6.70;6.00;;;;;;;4.62;81.41;99382.36;108988;1256;59736;-77
2023/02/03 11:32:22;;;;;;;6.90;5.90;;;;;;;5.52;77.43;99378.14;108929;1261;72710;-76
2023/02/03 11:35:02;;;;;;;6.20;5.20;;;;;;;5.91;71.86;99378.32;109286;1253;70482;-76
2023/02/03 11:37:33;;;;;;;5.60;4.90;;;;;;;5.90;71.26;99378.06;109349;1254;72719;-77
2023/02/03 11:40:10;;;;;;;5.70;4.80;;;;;;;5.89;70.27;99376.23;109414;1253;60207;-75
2023/02/03 11:42:43;;;;;;;5.80;5.00;;;;;;;5.66;69.56;99376.48;109302;1253;60320;-75